Airfield :
LOGIN :

Register | Disclaimer

   EN    FR    IT 

 










Legend :    VFR   Marginal VFR   IFR   Intensive IFR   Very Intensive IFR
Visi :
Ceiling :
>= 8 km
>= 3000ft
5 to 8 km
1000 to 3000 ft
1500m to 5 km
500 to 1000 ft
800 to 1500m
200 to 500 ft
< 800m
< 200 ft
Symbols :   Thunderstorms  Fog  Heavy snow  Heavy precipitations  Wind > 20 kt
SIGMETs :     Misc.  Thunderstorms  Icing  Turbulence  Mountain Waves  Volcanic Ashes







- Airport Elevation : 124 ft
- IATA code : RNS
- Download approach charts


LFRN - Rennes

CURRENT METAR :
  • 162200Z AUTO 21003KT 9999 -RA FEW027 OVC076 14/12 Q1023 NOSIG

EXPIRED METARs :
  • 162130Z AUTO 21005KT 9999 FEW029 OVC082 14/12 Q1023 NOSIG
  • 162100Z AUTO 20003KT CAVOK 14/12 Q1023 NOSIG
  • 162030Z AUTO 19003KT CAVOK 15/12 Q1023 NOSIG
  • 162000Z AUTO 20004KT CAVOK 15/12 Q1023 NOSIG
  • 161930Z AUTO 20005KT CAVOK 15/12 Q1023 NOSIG
  • 161900Z AUTO 21005KT CAVOK 15/12 Q1022 NOSIG

TAF TAF LFRN
Valid from the 16 at 18:00 until the 17 at 18:00 UTC


161700Z 1618/1718 22010KT 9999 FEW030
BECMG 1621/1624 VRB03KT
PROB30
TEMPO 1703/1706 4000 BR
BECMG 1709/1712 10010KT
ATIS : +33 2 99 67 72 50
No reported NOTAMs for that airfield.



MET'MAP, your aeronautical weather chart ! - Copyright ORBIFLY December 2007 - Disclaimer

ORBIFLY MET'MAP TEAM :

Programming & Development : Alexandra Zaïnal
Concept & Development : Baudouin d'Aumeries
Co-Development & Prog : Marc-Olivier Méhu
Technical & hardware support : Manuel Goepfert

Contact : metmap@orbifly.com




SOURCES & CREDITS :

   NOAA